createdAt,value
2022-12-16T00:04:46.950Z,-8.57
2022-12-16T00:09:46.895Z,-8.56
2022-12-16T00:14:46.825Z,-8.57
2022-12-16T00:19:46.771Z,-8.61
2022-12-16T00:24:46.704Z,-8.56
2022-12-16T00:29:46.650Z,-8.56
2022-12-16T00:34:46.581Z,-8.46
2022-12-16T00:39:46.528Z,-8.36
2022-12-16T00:44:46.461Z,-8.31
2022-12-16T00:49:46.408Z,-8.24
2022-12-16T00:54:46.335Z,-8.15
2022-12-16T00:59:46.285Z,-8.25
2022-12-16T01:04:46.216Z,-8.31
2022-12-16T01:09:46.165Z,-8.31
2022-12-16T01:14:46.094Z,-8.27
2022-12-16T01:19:46.040Z,-8.18
2022-12-16T01:24:45.973Z,-8.07
2022-12-16T01:29:45.919Z,-7.99
2022-12-16T01:34:49.693Z,-7.92
2022-12-16T01:39:45.802Z,-7.81
2022-12-16T01:44:45.730Z,-7.78
2022-12-16T01:49:45.677Z,-7.71
2022-12-16T01:54:45.610Z,-7.63
2022-12-16T01:59:45.558Z,-7.64
2022-12-16T02:04:45.489Z,-7.61
2022-12-16T02:09:45.436Z,-7.58
2022-12-16T02:14:45.367Z,-7.54
2022-12-16T02:19:45.314Z,-7.52
2022-12-16T02:24:45.247Z,-7.52
2022-12-16T02:29:45.193Z,-7.50
2022-12-16T02:34:45.124Z,-7.52
2022-12-16T02:39:45.070Z,-7.58
2022-12-16T02:44:45.000Z,-7.60
2022-12-16T02:49:44.946Z,-7.65
2022-12-16T02:54:44.881Z,-7.83
2022-12-16T02:59:44.831Z,-7.97
2022-12-16T03:04:44.757Z,-8.00
2022-12-16T03:09:44.705Z,-8.04
2022-12-16T03:14:44.636Z,-8.12
2022-12-16T03:19:44.583Z,-8.14
2022-12-16T03:24:44.513Z,-8.22
2022-12-16T03:29:44.459Z,-8.28
2022-12-16T03:34:44.392Z,-8.30
2022-12-16T03:39:44.337Z,-8.33
2022-12-16T03:44:44.272Z,-8.36
2022-12-16T03:49:44.216Z,-8.42
2022-12-16T03:54:44.148Z,-8.39
2022-12-16T03:59:44.094Z,-8.31
2022-12-16T04:04:44.026Z,-8.30
2022-12-16T04:09:43.977Z,-8.36
2022-12-16T04:14:46.794Z,-8.45
2022-12-16T04:19:43.855Z,-8.59
2022-12-16T04:24:43.785Z,-8.79
2022-12-16T04:29:43.733Z,-8.83
2022-12-16T04:34:43.660Z,-8.94
2022-12-16T04:39:43.610Z,-8.99
2022-12-16T04:44:43.546Z,-8.93
2022-12-16T04:49:43.492Z,-8.99
2022-12-16T04:54:43.421Z,-9.06
2022-12-16T04:59:43.366Z,-9.04
2022-12-16T05:04:43.299Z,-9.02
2022-12-16T05:09:43.247Z,-9.03
2022-12-16T05:14:43.181Z,-9.04
2022-12-16T05:19:43.126Z,-9.07
2022-12-16T05:24:44.585Z,-9.14
2022-12-16T05:29:43.005Z,-9.15
2022-12-16T05:34:42.936Z,-9.22
2022-12-16T05:39:42.884Z,-9.28
2022-12-16T05:44:42.816Z,-9.31
2022-12-16T05:49:42.766Z,-9.32
2022-12-16T05:54:42.699Z,-9.31
2022-12-16T05:59:42.644Z,-9.24
2022-12-16T06:04:42.599Z,-9.25
2022-12-16T06:09:42.524Z,-9.29
2022-12-16T06:14:42.456Z,-9.33
2022-12-16T06:19:42.405Z,-9.31
2022-12-16T06:24:42.336Z,-9.28
2022-12-16T06:29:42.283Z,-9.29
2022-12-16T06:34:42.216Z,-9.31
2022-12-16T06:39:42.164Z,-9.38
2022-12-16T06:44:42.095Z,-9.39
2022-12-16T06:49:42.046Z,-9.41
2022-12-16T06:54:41.974Z,-9.38
2022-12-16T06:59:41.923Z,-9.33
2022-12-16T07:04:41.859Z,-9.32
2022-12-16T07:09:41.802Z,-9.28
2022-12-16T07:14:41.732Z,-9.35
2022-12-16T07:19:41.683Z,-9.35
2022-12-16T07:24:41.609Z,-9.33
2022-12-16T07:29:41.556Z,-9.29
2022-12-16T07:34:45.884Z,-9.31
2022-12-16T07:39:41.435Z,-9.31
2022-12-16T07:44:41.369Z,-9.31
2022-12-16T07:49:41.314Z,-9.20
2022-12-16T07:54:41.260Z,-9.04
2022-12-16T07:59:41.192Z,-8.93
2022-12-16T08:04:41.126Z,-8.81
2022-12-16T08:09:41.068Z,-8.79
2022-12-16T08:14:41.001Z,-8.73
2022-12-16T08:19:40.946Z,-8.54
2022-12-16T08:24:40.877Z,-7.64
2022-12-16T08:29:45.193Z,-7.70
2022-12-16T08:34:40.757Z,-7.46
2022-12-16T08:39:40.702Z,-7.46
2022-12-16T08:44:40.638Z,-6.65
2022-12-16T08:49:40.585Z,-5.92
2022-12-16T08:54:40.516Z,-6.07
2022-12-16T08:59:40.460Z,-5.85
2022-12-16T09:04:40.392Z,-5.45
2022-12-16T09:09:40.339Z,-4.48
2022-12-16T09:14:40.269Z,-2.87
2022-12-16T09:19:40.215Z,-1.69
2022-12-16T09:24:40.152Z,-0.41
2022-12-16T09:29:43.613Z,0.77
2022-12-16T09:34:40.018Z,2.09
2022-12-16T09:39:39.963Z,2.77
2022-12-16T09:44:39.895Z,2.86
2022-12-16T09:49:39.838Z,3.62
2022-12-16T09:54:39.775Z,3.85
2022-12-16T09:59:39.710Z,4.91
2022-12-16T10:04:39.642Z,4.85
2022-12-16T10:09:39.582Z,4.52
2022-12-16T10:14:39.510Z,4.74
2022-12-16T10:19:39.451Z,4.77
2022-12-16T10:24:39.378Z,4.92
2022-12-16T10:29:39.329Z,5.10
2022-12-16T10:34:39.249Z,4.99
2022-12-16T10:39:39.187Z,5.32
2022-12-16T10:44:39.114Z,5.31
2022-12-16T10:49:39.189Z,5.35
2022-12-16T10:54:38.986Z,5.35
2022-12-16T10:59:38.928Z,5.22
2022-12-16T11:04:44.294Z,5.06
2022-12-16T11:09:38.800Z,4.95
2022-12-16T11:14:38.727Z,4.83
2022-12-16T11:19:38.663Z,4.62
2022-12-16T11:24:38.590Z,4.42
2022-12-16T11:29:38.532Z,4.04
2022-12-16T11:34:38.464Z,3.69
2022-12-16T11:39:38.402Z,3.25
2022-12-16T11:44:38.328Z,2.66
2022-12-16T11:49:38.273Z,1.84
2022-12-16T11:54:38.202Z,1.11
2022-12-16T11:59:38.148Z,0.46
2022-12-16T12:04:38.176Z,-0.14
2022-12-16T12:09:38.029Z,-0.36
2022-12-16T12:14:37.945Z,-0.61
2022-12-16T12:19:43.633Z,-0.98
2022-12-16T12:24:37.818Z,-1.34
2022-12-16T12:29:37.760Z,-1.53
2022-12-16T12:34:37.687Z,-1.68
2022-12-16T12:39:37.630Z,-1.86
2022-12-16T12:44:48.511Z,-2.04
2022-12-16T12:49:38.528Z,-2.15
2022-12-16T12:54:37.433Z,-2.25
2022-12-16T12:59:37.380Z,-2.47
2022-12-16T13:04:37.318Z,-2.68
2022-12-16T13:09:37.256Z,-2.82
2022-12-16T13:14:37.184Z,-3.00
2022-12-16T13:19:37.129Z,-3.20
2022-12-16T13:24:37.057Z,-3.34
2022-12-16T13:29:37.000Z,-3.38
2022-12-16T13:34:36.931Z,-3.38
2022-12-16T13:39:36.877Z,-3.35
2022-12-16T13:44:36.805Z,-3.35
2022-12-16T13:49:36.747Z,-3.35
2022-12-16T13:54:36.680Z,-3.37
2022-12-16T13:59:36.743Z,-3.45
2022-12-16T14:04:36.552Z,-3.55
2022-12-16T14:09:36.497Z,-3.66
2022-12-16T14:14:36.425Z,-3.77
2022-12-16T14:19:36.373Z,-3.81
2022-12-16T14:24:36.300Z,-3.92
2022-12-16T14:29:36.247Z,-4.15
2022-12-16T14:34:36.178Z,-4.31
2022-12-16T14:39:36.121Z,-4.46
2022-12-16T14:44:36.049Z,-4.55
2022-12-16T14:49:35.997Z,-4.66
2022-12-16T14:54:35.936Z,-4.81
2022-12-16T14:59:35.871Z,-5.03
2022-12-16T15:04:36.009Z,-5.16
2022-12-16T15:09:35.744Z,-5.27
2022-12-16T15:14:35.676Z,-5.39
2022-12-16T15:19:35.620Z,-5.50
2022-12-16T15:24:35.554Z,-5.55
2022-12-16T15:29:35.638Z,-5.60
2022-12-16T15:34:35.437Z,-5.75
2022-12-16T15:39:35.373Z,-5.95
2022-12-16T15:44:35.302Z,-6.07
2022-12-16T15:49:35.248Z,-6.18
2022-12-16T15:54:35.255Z,-6.31
2022-12-16T15:59:35.120Z,-6.35
2022-12-16T16:04:35.051Z,-6.46
2022-12-16T16:09:34.997Z,-6.44
2022-12-16T16:14:34.925Z,-6.42
2022-12-16T16:19:34.876Z,-6.44
2022-12-16T16:24:34.803Z,-6.52
2022-12-16T16:29:34.752Z,-6.60
2022-12-16T16:34:34.679Z,-6.65
2022-12-16T16:39:34.627Z,-6.70
2022-12-16T16:44:34.555Z,-6.80
2022-12-16T16:49:34.501Z,-6.77
2022-12-16T16:54:34.591Z,-6.82
2022-12-16T16:59:34.379Z,-6.85
2022-12-16T17:04:34.428Z,-6.89
2022-12-16T17:09:34.256Z,-6.86
2022-12-16T17:14:34.188Z,-6.80
2022-12-16T17:19:34.136Z,-6.78
2022-12-16T17:24:34.279Z,-6.80
2022-12-16T17:29:34.014Z,-6.77
2022-12-16T17:34:33.941Z,-6.74
2022-12-16T17:39:33.889Z,-6.77
2022-12-16T17:44:33.819Z,-6.73
2022-12-16T17:49:33.768Z,-6.68
2022-12-16T17:54:33.695Z,-6.67
2022-12-16T17:59:33.643Z,-6.62
2022-12-16T18:04:33.572Z,-6.59
2022-12-16T18:09:33.522Z,-6.60
2022-12-16T18:14:33.449Z,-6.60
2022-12-16T18:19:33.389Z,-6.59
2022-12-16T18:24:33.336Z,-6.53
2022-12-16T18:29:33.266Z,-6.53
2022-12-16T18:34:33.212Z,-6.54
2022-12-16T18:39:33.143Z,-6.64
2022-12-16T18:44:33.094Z,-6.65
2022-12-16T18:49:33.033Z,-6.62
2022-12-16T18:54:32.968Z,-6.65
2022-12-16T18:59:32.895Z,-6.62
2022-12-16T19:04:32.842Z,-6.59
2022-12-16T19:09:32.771Z,-6.65
2022-12-16T19:14:32.722Z,-6.65
2022-12-16T19:19:32.648Z,-6.64
2022-12-16T19:24:32.630Z,-6.64
2022-12-16T19:29:32.524Z,-6.62
2022-12-16T19:34:32.471Z,-6.59
2022-12-16T19:39:32.406Z,-6.53
2022-12-16T19:44:32.348Z,-6.47
2022-12-16T19:49:32.281Z,-6.38
2022-12-16T19:54:32.226Z,-6.32
2022-12-16T19:59:32.158Z,-6.23
2022-12-16T20:04:32.107Z,-6.14
2022-12-16T20:09:32.037Z,-6.03
2022-12-16T20:14:31.979Z,-5.95
2022-12-16T20:19:31.917Z,-5.85
2022-12-16T20:24:31.858Z,-5.75
2022-12-16T20:29:31.789Z,-5.66
2022-12-16T20:34:31.733Z,-5.56
2022-12-16T20:39:31.664Z,-5.45
2022-12-16T20:44:31.620Z,-5.38
2022-12-16T20:49:31.545Z,-5.30
2022-12-16T20:54:31.487Z,-5.17
2022-12-16T20:59:31.418Z,-5.08
2022-12-16T21:04:31.376Z,-5.00
2022-12-16T21:09:31.497Z,-4.96
2022-12-16T21:14:31.240Z,-4.89
2022-12-16T21:24:32.147Z,-4.79
2022-12-16T21:29:31.045Z,-4.77
2022-12-16T21:34:30.994Z,-4.78
2022-12-16T21:39:30.925Z,-4.79
2022-12-16T21:44:30.868Z,-4.75
2022-12-16T21:49:30.800Z,-4.71
2022-12-16T21:54:30.744Z,-4.57
2022-12-16T21:59:30.673Z,-4.50
2022-12-16T22:04:30.618Z,-4.53
2022-12-16T22:09:30.545Z,-4.50
2022-12-16T22:14:30.491Z,-4.48
2022-12-16T22:19:30.421Z,-4.42
2022-12-16T22:24:30.372Z,-4.41
2022-12-16T22:29:30.297Z,-4.37
2022-12-16T22:34:30.247Z,-4.41
2022-12-16T22:39:30.174Z,-4.42
2022-12-16T22:44:30.119Z,-4.34
2022-12-16T22:49:30.048Z,-4.27
2022-12-16T22:54:29.993Z,-4.30
2022-12-16T22:59:29.924Z,-4.24
2022-12-16T23:04:30.004Z,-4.15
2022-12-16T23:09:29.803Z,-4.09
2022-12-16T23:14:29.746Z,-4.06
2022-12-16T23:19:29.675Z,-4.02
2022-12-16T23:24:29.622Z,-3.95
2022-12-16T23:29:29.554Z,-3.88
2022-12-16T23:32:30.550Z,-4.82
2022-12-16T23:34:29.499Z,-3.84
2022-12-16T23:39:29.430Z,-3.81
2022-12-16T23:44:29.376Z,-3.79
2022-12-16T23:49:29.310Z,-3.74
2022-12-16T23:54:29.248Z,-3.67
2022-12-16T23:59:29.179Z,-3.56
